Terminal Aerodrome Forecast
Issued by NWS Twin Cities, MN

Home | Current Version | Previous Version | Text Only | Print | Product List | Glossary Off
Versions: 1 2 3 4 5 6 7 8 9 10 11 12 13 14 15 16 17

867
FTUS43 KMPX 060542
TAFSTC
TAF
KSTC 060542Z 0606/0706 22005KT 6SM BR SCT008 OVC011
     FM060800 22005KT 6SM BR OVC008
     FM061200 19008KT P6SM BKN100
     FM061900 20012KT P6SM OVC070
     FM070200 22012KT P6SM SCT015 SCT120=

USA.gov is the U.S. government's official web portal to all federal, state and local government web resources and services.